createdAt,value
2023-01-17T00:00:39.667Z,97115.16
2023-01-17T00:06:00.098Z,97105.84
2023-01-17T00:11:00.835Z,97103.59
2023-01-17T00:16:01.579Z,97093.28
2023-01-17T00:21:20.985Z,97097.84
2023-01-17T00:26:21.655Z,97093.53
2023-01-17T00:31:21.722Z,97103.75
2023-01-17T00:36:22.705Z,97099.66
2023-01-17T00:41:22.315Z,97091.09
2023-01-17T00:46:41.126Z,97099.00
2023-01-17T00:52:01.700Z,97108.19
2023-01-17T00:57:20.622Z,97106.38
2023-01-17T01:02:39.071Z,97111.41
2023-01-17T01:07:58.490Z,97117.19
2023-01-17T01:13:18.557Z,97120.47
2023-01-17T01:18:36.831Z,97117.44
2023-01-17T01:23:56.202Z,97123.00
2023-01-17T01:29:14.601Z,97121.13
2023-01-17T01:34:15.269Z,97121.34
2023-01-17T01:39:17.239Z,97123.63
2023-01-17T01:44:42.546Z,97119.09
2023-01-17T01:49:44.354Z,97113.38
2023-01-17T01:54:53.918Z,97113.88
2023-01-17T02:00:00.383Z,97102.41
2023-01-17T02:05:04.510Z,97105.69
2023-01-17T02:10:07.088Z,97103.13
2023-01-17T02:15:09.019Z,97114.84
2023-01-17T02:20:46.853Z,97115.84
2023-01-17T02:26:23.604Z,97110.16
2023-01-17T02:31:30.253Z,97113.75
2023-01-17T02:36:34.517Z,97117.53
2023-01-17T02:41:38.564Z,97117.94
2023-01-17T02:46:47.454Z,97122.72
2023-01-17T02:51:57.787Z,97125.75
2023-01-17T02:57:14.574Z,97127.22
2023-01-17T03:02:26.668Z,97146.13
2023-01-17T03:07:29.272Z,97146.16
2023-01-17T03:12:31.369Z,97151.28
2023-01-17T03:17:37.235Z,97154.69
2023-01-17T03:22:37.910Z,97154.81
2023-01-17T03:27:38.652Z,97157.34
2023-01-17T03:32:41.056Z,97169.84
2023-01-17T03:37:41.903Z,97172.66
2023-01-17T03:42:42.802Z,97178.75
2023-01-17T03:47:44.891Z,97187.03
2023-01-17T03:52:45.548Z,97185.88
2023-01-17T03:57:46.359Z,97195.94
2023-01-17T04:02:48.439Z,97206.56
2023-01-17T04:07:49.155Z,97201.19
2023-01-17T04:12:49.845Z,97215.06
2023-01-17T04:17:51.934Z,97234.91
2023-01-17T04:22:52.558Z,97217.28
2023-01-17T04:27:53.263Z,97240.59
2023-01-17T04:32:55.876Z,97233.84
2023-01-17T04:37:56.520Z,97252.53
2023-01-17T04:42:57.617Z,97251.94
2023-01-17T04:48:03.763Z,97266.97
2023-01-17T04:53:04.431Z,97272.66
2023-01-17T04:58:05.100Z,97278.00
2023-01-17T05:03:07.214Z,97285.03
2023-01-17T05:08:07.893Z,97302.56
2023-01-17T05:13:08.629Z,97311.31
2023-01-17T05:18:13.677Z,97309.13
2023-01-17T05:23:20.879Z,97308.72
2023-01-17T05:28:22.220Z,97318.66
2023-01-17T05:33:24.713Z,97301.41
2023-01-17T05:38:25.718Z,97313.16
2023-01-17T05:43:26.463Z,97315.75
2023-01-17T05:48:28.475Z,97326.41
2023-01-17T05:53:29.229Z,97330.22
2023-01-17T05:58:30.007Z,97330.22
2023-01-17T06:03:32.054Z,97343.47
2023-01-17T06:08:32.726Z,97348.16
2023-01-17T06:13:33.415Z,97360.22
2023-01-17T06:18:35.414Z,97355.41
2023-01-17T06:23:36.101Z,97367.00
2023-01-17T06:28:36.819Z,97366.31
2023-01-17T06:33:38.851Z,97371.09
2023-01-17T06:38:39.522Z,97365.09
2023-01-17T06:43:40.206Z,97370.25
2023-01-17T06:48:43.588Z,97369.97
2023-01-17T06:53:44.503Z,97394.72
2023-01-17T06:58:45.305Z,97396.34
2023-01-17T07:03:47.395Z,97405.09
2023-01-17T07:08:48.941Z,97430.72
2023-01-17T07:13:49.743Z,97438.19
2023-01-17T07:18:54.728Z,97441.72
2023-01-17T07:23:55.608Z,97442.56
2023-01-17T07:28:56.305Z,97441.16
2023-01-17T07:33:58.339Z,97440.47
2023-01-17T07:38:59.047Z,97440.72
2023-01-17T07:44:00.514Z,97442.22
2023-01-17T07:49:03.153Z,97454.91
2023-01-17T07:54:04.346Z,97457.03
2023-01-17T07:59:05.014Z,97456.00
2023-01-17T08:04:07.120Z,97464.78
2023-01-17T08:09:07.883Z,97469.34
2023-01-17T08:14:08.574Z,97468.88
2023-01-17T08:19:11.381Z,97465.16
2023-01-17T08:24:13.352Z,97467.38
2023-01-17T08:29:15.149Z,97481.78
2023-01-17T08:34:17.579Z,97496.75
2023-01-17T08:39:18.708Z,97503.38
2023-01-17T08:44:20.095Z,97512.09
2023-01-17T08:49:22.182Z,97507.72
2023-01-17T08:54:23.190Z,97517.63
2023-01-17T08:59:23.886Z,97525.44
2023-01-17T09:04:25.933Z,97519.00
2023-01-17T09:09:26.677Z,97534.94
2023-01-17T09:14:27.467Z,97558.19
2023-01-17T09:19:30.198Z,97562.03
2023-01-17T09:24:31.195Z,97562.59
2023-01-17T09:29:32.129Z,97566.09
2023-01-17T09:34:34.208Z,97569.41
2023-01-17T09:39:34.887Z,97569.75
2023-01-17T09:44:42.440Z,97568.06
2023-01-17T09:49:45.807Z,97579.28
2023-01-17T09:54:48.701Z,97584.31
2023-01-17T10:00:03.505Z,97582.66
2023-01-17T10:05:28.637Z,97580.59
2023-01-17T10:10:37.952Z,97602.56
2023-01-17T10:15:51.335Z,97590.16
2023-01-17T10:21:00.290Z,97589.41
2023-01-17T10:26:03.859Z,97594.91
2023-01-17T10:31:08.379Z,97587.22
2023-01-17T10:36:20.612Z,97590.06
2023-01-17T10:41:26.881Z,97603.88
2023-01-17T10:46:33.282Z,97606.19
2023-01-17T10:52:16.621Z,97620.88
2023-01-17T10:57:21.168Z,97621.50
2023-01-17T11:02:25.811Z,97621.53
2023-01-17T11:07:29.954Z,97632.38
2023-01-17T11:12:33.942Z,97630.31
2023-01-17T11:17:37.357Z,97623.28
2023-01-17T11:22:39.756Z,97607.78
2023-01-17T11:27:41.928Z,97613.72
2023-01-17T11:32:52.750Z,97611.56
2023-01-17T11:38:06.126Z,97617.78
2023-01-17T11:43:19.956Z,97614.84
2023-01-17T11:48:21.951Z,97617.19
2023-01-17T11:53:30.458Z,97619.31
2023-01-17T11:58:33.405Z,97611.63
2023-01-17T12:03:52.012Z,97617.31
2023-01-17T12:09:07.862Z,97615.75
2023-01-17T12:14:22.809Z,97613.81
2023-01-17T12:19:36.624Z,97607.94
2023-01-17T12:24:53.646Z,97608.78
2023-01-17T12:30:07.084Z,97608.31
2023-01-17T12:35:14.957Z,97615.22
2023-01-17T12:40:23.998Z,97606.25
2023-01-17T12:45:32.076Z,97616.41
2023-01-17T12:50:37.478Z,97616.66
2023-01-17T12:55:48.342Z,97608.06
2023-01-17T13:00:55.732Z,97612.28
2023-01-17T13:05:58.659Z,97609.69
2023-01-17T13:11:06.021Z,97617.25
2023-01-17T13:16:13.707Z,97630.59
2023-01-17T13:21:30.463Z,97629.19
2023-01-17T13:26:44.686Z,97639.34
2023-01-17T13:31:48.874Z,97636.31
2023-01-17T13:37:05.929Z,97651.97
2023-01-17T13:42:23.691Z,97640.59
2023-01-17T13:47:40.431Z,97641.63
2023-01-17T13:52:41.119Z,97654.84
2023-01-17T13:57:43.886Z,97659.91
2023-01-17T14:02:46.605Z,97666.09
2023-01-17T14:07:54.939Z,97663.94
2023-01-17T14:12:57.480Z,97675.19
2023-01-17T14:18:01.057Z,97667.91
2023-01-17T14:23:04.548Z,97671.31
2023-01-17T14:28:23.017Z,97659.75
2023-01-17T14:33:30.040Z,97659.16
2023-01-17T14:38:32.911Z,97667.44
2023-01-17T14:43:38.699Z,97671.16
2023-01-17T14:48:41.931Z,97683.66
2023-01-17T14:53:53.967Z,97692.34
2023-01-17T14:59:16.922Z,97683.78
2023-01-17T15:04:26.993Z,97685.97
2023-01-17T15:09:32.125Z,97691.22
2023-01-17T15:14:39.267Z,97695.44
2023-01-17T15:19:45.642Z,97709.09
2023-01-17T15:24:48.728Z,97704.53
2023-01-17T15:29:51.141Z,97703.88
2023-01-17T15:34:53.916Z,97710.38
2023-01-17T15:40:03.783Z,97711.53
2023-01-17T15:45:11.707Z,97707.31
2023-01-17T15:50:31.025Z,97714.31
2023-01-17T15:55:34.446Z,97716.09
2023-01-17T16:00:41.966Z,97723.19
2023-01-17T16:05:43.825Z,97714.72
2023-01-17T16:10:45.059Z,97709.41
2023-01-17T16:15:47.206Z,97712.03
2023-01-17T16:20:50.999Z,97711.72
2023-01-17T16:25:51.713Z,97709.22
2023-01-17T16:30:54.300Z,97707.41
2023-01-17T16:35:56.001Z,97719.69
2023-01-17T16:40:56.746Z,97707.91
2023-01-17T16:45:58.759Z,97714.38
2023-01-17T16:50:59.657Z,97715.91
2023-01-17T16:56:08.029Z,97701.25
2023-01-17T17:01:15.881Z,97696.41
2023-01-17T17:06:17.723Z,97695.69
2023-01-17T17:11:19.915Z,97707.88
2023-01-17T17:16:24.168Z,97700.63
2023-01-17T17:21:25.224Z,97697.00
2023-01-17T17:26:27.639Z,97691.38
2023-01-17T17:31:29.674Z,97696.72
2023-01-17T17:36:32.059Z,97710.16
2023-01-17T17:41:35.087Z,97715.44
2023-01-17T17:46:37.349Z,97719.91
2023-01-17T17:51:40.030Z,97727.41
2023-01-17T17:56:42.285Z,97724.28
2023-01-17T18:01:44.424Z,97715.38
2023-01-17T18:06:45.157Z,97725.91
2023-01-17T18:11:45.896Z,97729.72
2023-01-17T18:16:47.937Z,97731.63
2023-01-17T18:21:50.366Z,97726.66
2023-01-17T18:26:52.506Z,97733.72
2023-01-17T18:31:55.361Z,97730.53
2023-01-17T18:36:56.700Z,97729.72
2023-01-17T18:41:57.852Z,97731.66
2023-01-17T18:47:04.484Z,97739.38
2023-01-17T18:52:07.985Z,97747.94
2023-01-17T18:57:08.739Z,97743.91
2023-01-17T19:02:10.927Z,97758.53
2023-01-17T19:07:12.678Z,97751.78
2023-01-17T19:12:13.401Z,97754.41
2023-01-17T19:17:15.670Z,97748.72
2023-01-17T19:22:16.483Z,97763.34
2023-01-17T19:27:18.777Z,97762.69
2023-01-17T19:32:20.823Z,97768.72
2023-01-17T19:37:21.509Z,97772.97
2023-01-17T19:42:22.705Z,97767.13
2023-01-17T19:47:24.833Z,97771.38
2023-01-17T19:52:26.270Z,97783.41
2023-01-17T19:57:27.826Z,97782.72
2023-01-17T20:02:30.013Z,97798.28
2023-01-17T20:07:31.328Z,97788.13
2023-01-17T20:12:32.059Z,97796.69
2023-01-17T20:17:34.704Z,97810.38
2023-01-17T20:22:35.556Z,97814.63
2023-01-17T20:27:36.406Z,97812.13
2023-01-17T20:32:38.459Z,97825.91
2023-01-17T20:37:39.211Z,97831.81
2023-01-17T20:42:39.903Z,97833.59
2023-01-17T20:47:42.037Z,97843.88
2023-01-17T20:52:42.686Z,97833.63
2023-01-17T20:57:43.494Z,97839.69
2023-01-17T21:02:46.548Z,97836.25
2023-01-17T21:07:47.224Z,97832.97
2023-01-17T21:12:47.959Z,97829.56
2023-01-17T21:17:50.101Z,97820.97
2023-01-17T21:22:50.765Z,97829.50
2023-01-17T21:27:53.105Z,97837.16
2023-01-17T21:32:55.165Z,97832.97
2023-01-17T21:37:56.261Z,97823.59
2023-01-17T21:42:57.119Z,97823.56
2023-01-17T21:47:59.290Z,97829.53
2023-01-17T21:53:00.084Z,97832.13
2023-01-17T21:58:18.407Z,97818.47
2023-01-17T22:03:20.438Z,97815.94
2023-01-17T22:08:21.145Z,97810.88
2023-01-17T22:13:21.843Z,97801.47
2023-01-17T22:18:23.927Z,97796.44
2023-01-17T22:23:24.854Z,97781.06
2023-01-17T22:28:25.538Z,97790.41
2023-01-17T22:33:27.531Z,97780.25
2023-01-17T22:38:28.241Z,97781.00
2023-01-17T22:43:28.939Z,97778.38
2023-01-17T22:48:32.908Z,97774.97
2023-01-17T22:53:34.056Z,97766.34
2023-01-17T22:58:35.432Z,97756.06
2023-01-17T23:03:37.877Z,97752.53
2023-01-17T23:08:41.353Z,97739.59
2023-01-17T23:13:42.211Z,97735.22
2023-01-17T23:19:01.839Z,97720.84
2023-01-17T23:24:03.686Z,97720.06
2023-01-17T23:29:04.367Z,97718.28
2023-01-17T23:34:06.492Z,97728.34
2023-01-17T23:39:07.155Z,97729.88
2023-01-17T23:44:07.823Z,97730.53
2023-01-17T23:49:09.874Z,97728.63
2023-01-17T23:54:10.581Z,97726.09
2023-01-17T23:59:11.330Z,97727.72
